ADDS TAF Data INFO
IDs: Format: Raw Decoded Include METARs

Data at: 2308 UTC 15 Aug 2018

KTYS 152253Z 06003KT 10SM FEW050 SCT120 OVC250 28/22 A3008 RMK AO2 SLP176 T02780217

KTYS 151720Z 1518/1618 00000KT P6SM SCT035 BKN100
  FM160000 01002KT P6SM BKN200
  FM161500 24009KT P6SM SCT250


KGSO 152254Z 24005KT 10SM OVC250 29/18 A3007 RMK AO2 SLP171 T02890183

KGSO 151725Z 1518/1618 24003KT P6SM SCT050 SCT150
  FM160000 00000KT P6SM FEW250
  FM161100 22003KT P6SM SCT045


KCLT 152252Z 32004KT 10SM FEW055 BKN250 31/21 A3007 RMK AO2 SLP174 TCU DSNT E AND SE T03060211

KCLT 152228Z 1522/1624 29004KT P6SM FEW060 BKN250
  FM160500 VRB02KT P6SM FEW080 SCT150
  FM161400 23004KT P6SM FEW050 SCT200
  FM161700 24007KT P6SM SCT050


KRDU 152251Z 00000KT 10SM FEW050 BKN250 29/19 A3005 RMK AO2 SLP172 TCU DSNT SE-S T02940189

KRDU 151725Z 1518/1618 25004KT P6SM SCT050 SCT200
  FM160000 00000KT P6SM FEW250
  FM161500 22006KT P6SM FEW045


KPOB 152256Z AUTO 35004KT 10SM OVC110 30/22 A3003 RMK AO2 SLP170 T02970219 $

TAF AMD KPOB 151755Z 1517/1623 22006KT 9999 VCSH SCT050 QNH3002INS
  BECMG 1521/1522 22006KT 9999 NSW SCT050 SCT250 QNH3002INS TX33/1520Z TN22/1611Z


KFBG 152256Z AUTO 35003KT 10SM FEW110 30/22 A3003 RMK AO2 SLP170 T02950217

TAF AMD KFBG 152120Z 1521/1623 22006KT 9999 VCSH SCT050 QNH3002INS
  TEMPO 1521/1524 VCTS SCT050CB
  BECMG 1523/1524 22006KT 9999 NSW SCT050 SCT250 QNH3002INS TX33/1521Z TN22/1611Z


KFAY 152253Z 28012KT 10SM -RA OVC060 31/21 A3003 RMK AO2 RAB50 SLP162 P0000 T03060211

KFAY 151725Z 1518/1618 23006KT P6SM SCT060
  FM160000 18004KT P6SM BKN050
  FM160930 20003KT 5SM BR FEW060
  FM161200 21005KT P6SM SCT035
  FM161600 23008KT P6SM SCT045


KRWI 152253Z AUTO 33005KT 10SM CLR 29/22 A3003 RMK AO2 SLP168 T02940217

KRWI 151725Z 1518/1618 25007KT P6SM SCT050
  FM160000 00000KT P6SM FEW250
  FM161000 00000KT 3SM BR FEW010
  FM161200 00000KT P6SM SCT008
  FM161300 VRB02KT P6SM FEW120
  FM161600 22007KT P6SM SCT045


KISO 152256Z 00000KT 10SM SKC 29/21 A3003

KISO 151730Z 1518/1618 22004KT P6SM SCT050
  FM160800 VRB03KT 5SM BR SCT250
  FM161200 22004KT P6SM SCT250 AMD LTD TO CLD VIS AND WIND


KGWW 152255Z AUTO 00000KT 10SM CLR 28/26 A3003 RMK AO2 T02810264

No TAF found for KGWW

KGSB 152256Z AUTO 28004KT 10SM CLR 31/20 A3001 RMK AO2 SLP164 T03080204 $

TAF KGSB 152000Z 1520/1702 22006KT 9999 SCT050 SCT250 QNH2998INS
  BECMG 1608/1609 24003KT 6000 BR SKC QNH2998INS
  BECMG 1613/1614 27006KT 9999 NSW FEW030 QNH2996INS TX33/1620Z TN22/1611Z


KDPL 152250Z AUTO 00000KT 10SM OVC050 27/23 A3003 RMK AO2

No TAF found for KDPL

KCTZ 152250Z AUTO 00000KT 10SM CLR 32/22 A3003 RMK AO2 T03200220

No TAF found for KCTZ

KORF 152251Z 08004KT 10SM CLR 30/21 A3002 RMK AO2 SLP164 T03000211

KORF 151740Z 1518/1618 29005KT P6SM FEW050
  FM152100 14005KT P6SM SCT050
  FM160100 19004KT P6SM FEW250
  FM161600 25005KT P6SM FEW050


KLFI 152256Z AUTO 06005KT 10SM FEW049 30/21 A3002 RMK AO2 SLP172 T03010214 $

TAF KLFI 151700Z 1517/1623 22006KT 9999 FEW040 QNH3000INS
  BECMG 1618/1619 20006KT 9999 BKN035 OVC050 QNH2998INS TX31/1617Z TN25/1608Z


KNTU 152256Z 10006KT 10SM FEW050 BKN280 28/21 A3001 RMK AO2 SLP165 T02830206

TAF KNTU 1523/1623 VRB04KT 9999 SCT280 QNH2996INS
  FM161500 20006KT 9999 BKN040 BKN300 QNH3005INS T24/1610Z T33/1619Z FN20051


KECG 152254Z 23003KT 10SM CLR 31/23 A3002 RMK AO2 SLP165 T03060233

KECG 151740Z 1518/1618 22009KT P6SM SCT045
  FM160100 20004KT P6SM SKC
  FM161500 22007KT P6SM SCT040


KEWN 152254Z 22008KT 10SM OVC110 26/22 A3005 RMK AO2 RAB44E53 SLP175 P0000 T02560217

KEWN 151730Z 1518/1618 VRB03KT P6SM SCT050
  FM151900 21004KT P6SM VCSH SCT050
  FM152300 VRB03KT P6SM FEW050 FEW250
  FM161400 23004KT P6SM SCT250


KNKT 152305Z 18005KT 10SM FEW002 27/25 A3005 RMK AO2 T02670250 $

TAF KNKT 1521/1621 20005KT 9999 BKN100 QNH3003INS
  TEMPO 1521/1600 VRB15G30KT 3200 TSRA SCT020 BKN030CB
  FM160000 20007KT 9999 FEW030 BKN150 QNH3005INS
  TEMPO 1609/1613 VRB03KT 3200 BR FEW050 BKN350 T24/1609Z T33/1618Z


KILM 152253Z 21007KT 10SM CLR 29/23 A3004 RMK AO2 SLP171 T02940228

KILM 151758Z 1518/1618 23005KT P6SM VCTS FEW040CB SCT045
  TEMPO 1518/1521 VRB10G25KT 3SM TSRA BKN025CB
  FM152100 20010KT P6SM VCTS SCT035CB BKN045
  FM160100 23002KT P6SM SCT250
  FM160700 00000KT 3SM BR SCT002
  FM161300 24005KT P6SM SKC


KCAE 152256Z 15005KT 10SM SCT065 BKN150 32/20 A3004 RMK AO2 SLP168 T03220200

KCAE 152037Z 1521/1618 VRB04KT P6SM SCT050 BKN180
  FM160200 00000KT P6SM FEW250
  FM161500 VRB04KT P6SM FEW050


KSSC 152256Z 21005KT 10SM FEW070 SCT250 30/21 A3004 RMK AO2A SLP172 T02980209 TSNO CHINO RWY22 $

TAF KSSC 151500Z 1515/1621 33006KT 9999 SCT050 SCT250 QNH3003INS
  BECMG 1600/1601 20006KT 9999 SCT040 BKN150 QNH3005INS
  BECMG 1607/1608 22006KT 8000 BR SCT030 BKN100 QNH3007INS
  BECMG 1614/1615 21006KT 9999 NSW FEW040 BKN120 QNH3010INS TX34/1521Z TN22/1612Z


KMMT 152256Z 18003KT 10SM FEW070 BKN250 30/21 A3005 RMK AO2A SLP176 T03040209 $

TAF KMMT 151500Z 1515/1621 33006KT 9999 SCT050 SCT200 QNH3003INS
  BECMG 1600/1601 20006KT 9999 SCT040 BKN150 QNH3005INS
  BECMG 1607/1608 22006KT 8000 BR SCT030 BKN100 QNH3007INS
  BECMG 1614/1615 21006KT 9999 NSW FEW040 BKN120 QNH3010INS TX34/1521Z TN22/1612Z


KMYR 152256Z 21009KT 10SM CLR 29/25 A3005 RMK AO2 LTG DSNT NE SLP175 T02890250

KMYR 151741Z 1518/1618 24006KT P6SM VCTS SCT035CB BKN045
  FM151900 20012KT P6SM VCTS SCT030CB BKN040
  TEMPO 1519/1523 VRB10G25KT 3SM TSRA BKN025CB
  FM160100 22006KT P6SM SCT250
  FM160700 23003KT 5SM BR SCT002
  FM161300 24006KT P6SM SKC


KCHS 152256Z 22011KT 10SM TS SCT020CB SCT035 BKN250 29/25 A3006 RMK AO2 TSB50 SLP179 OCNL LTGIC SW-W TS SW-W MOV NE T02890250

KCHS 152303Z 1523/1618 21012KT P6SM TS SCT020 SCT035CB BKN150
  TEMPO 1523/1524 VRB15G20KT 2SM +TSRA SCT015 BKN030CB
  FM160000 20007KT P6SM SCT040 BKN200
  FM160600 21004KT P6SM BKN200
  FM161500 23009KT P6SM BKN050


KSAV 152253Z 18007KT 10SM FEW044CB FEW060 SCT085 BKN150 BKN220 29/23 A3007 RMK AO2 LTG DSNT W SLP182 CB SW-W T02890233

KSAV 152139Z 1522/1618 18008KT P6SM VCTS SCT035CB SCT080 BKN200
  FM160000 19004KT P6SM SCT040 BKN200
  FM160600 VRB03KT P6SM SCT200
  FM161500 21004KT P6SM BKN060


KSVN 152256Z AUTO 18007KT 10SM CLR 28/23 A3005 RMK AO2 SLP179 T02800233 FZRANO $

TAF KSVN 152000Z 1520/1702 20009KT 9999 SCT050 QNH3002INS
  TEMPO 1520/1524 22012G18KT 4800 -TSRA BKN040CB
  BECMG 1600/1601 22006KT 9999 FEW020 BKN050 QNH3005INS
  TEMPO 1608/1612 4800 BR BKN015 OVC050
  BECMG 1614/1615 20009KT 9999 FEW040 BKN100 QNH3010INS TX33/1521Z TN23/1612Z


KDCA 152252Z 33009KT 10SM FEW060 31/18 A3001 RMK AO2 SLP161 T03110183

KDCA 152031Z 1521/1624 29009KT P6SM SCT050 BKN250
  FM160000 22004KT P6SM FEW250
  FM161600 18006KT P6SM BKN150


KADW 152256Z AUTO 30006KT 10SM FEW160 FEW190 30/18 A3001 RMK AO2 SLP167 T02950179 $

TAF KADW 151700Z 1517/1623 30012KT 9999 FEW050 QNH2996INS
  BECMG 1600/1601 25009KT 9999 FEW050 SCT250 QNH3003INS
  BECMG 1617/1618 21009KT 9999 FEW055 SCT250 QNH3006INS TX32/1520Z TN20/1609Z